Walter J Mccarthy Jr — WXU3434 — position and weather

sailwx.info

Track history (hours):
 
Tides and Currents Weather Stations Pressure Air Temp Water Temp Dewpoint Dewpoint Depression Visibility Wind Speed Wind Dir Waves Ship Positions

Walter J Mccarthy Jr

Owner: ARMSTRONG STEAMSHIP CO, WILLIAMSVILLE, NY. More information available from US FCC via Universal Licensing System and Coast Guard Vessel Documentation Center.

Last reported at 2017-Dec-16 01:00 UTC. Time now 2017-Dec-17 02:33 UTC.
Position N 43°54' W 082°30'.

Length 304 m; draft 8.5 m.

Type: Cargo ship. MMSI: 366906610.

Wind from 250 at 29 knots

Barometer 1010.4 mb
Air temperature -3.8 ° C

Date/timePositionNaut miles runAvg speedWind from/ knotsBaromVisibWave heightAir tempDewpointWater temp
2017-Dec-16 01:00N 43°54' W 082°30'104 9.4 250 / 291010.4 -3.8
2017-Dec-15 14:00N 45°30' W 083°26'611.6
2017-Dec-15 13:30N 45°34' W 083°31'611.6
2017-Dec-15 13:00N 45°39' W 083°36'10777.1
2017-Dec-15 13:00N 45°30' W 083°30'1531.6 190 / 171008.1 -4.4
2017-Dec-15 12:30N 45°44' W 083°40'134 7.6
2017-Dec-14 19:00N 47°12' W 086°06'48 9.6 290 / 131014.0 5.4 -1.1
2017-Dec-14 14:00N 47°30' W 087°12'8912.8 300 / 151014.2 -6.1
2017-Dec-14 07:00N 47°36' W 089°24'6310.6 010 / 151015.010.8 -9.9
2017-Dec-14 01:00N 47°18' W 090°54'41 9.9 360 / 171012.5 -7.7
2017-Dec-13 20:49N 46°56' W 091°45'3 9.0
2017-Dec-13 20:30N 46°54' W 091°48'4 8.9
2017-Dec-13 20:00N 46°52' W 091°54'4 8.8
2017-Dec-13 19:30N 46°49' W 091°59'4 8.5
2017-Dec-13 19:00N 46°47' W 092°05'2 3.7
2017-Dec-13 18:30N 46°45' W 092°06'1 2.5
2017-Dec-13 18:00N 46°45' W 092°07'0 0.0
2017-Dec-13 17:30N 46°45' W 092°07'0 0.0
2017-Dec-13 17:00N 46°45' W 092°07'0 0.0
2017-Dec-13 16:30N 46°45' W 092°07'0 0.0
2017-Dec-13 16:00N 46°45' W 092°07'0 0.0
2017-Dec-13 15:30N 46°45' W 092°07'0 0.0
2017-Dec-13 15:00N 46°45' W 092°07'0 0.0
2017-Dec-13 14:30N 46°45' W 092°07'0 0.0
2017-Dec-13 14:00N 46°45' W 092°07'0 0.0
2017-Dec-13 13:30N 46°45' W 092°07'0 0.0
2017-Dec-13 13:00N 46°45' W 092°07'0 0.0
2017-Dec-13 12:30N 46°45' W 092°07'0 0.0
2017-Dec-13 12:00N 46°45' W 092°07'0 0.0
2017-Dec-13 11:29N 46°45' W 092°07'0 0.0
2017-Dec-13 11:00N 46°45' W 092°07'0 0.0
2017-Dec-13 10:30N 46°45' W 092°07'0 0.0
2017-Dec-13 10:00N 46°45' W 092°07'0 0.0
2017-Dec-13 09:30N 46°45' W 092°07'0 0.0
2017-Dec-13 09:00N 46°45' W 092°07'0 0.0
2017-Dec-13 08:30N 46°45' W 092°07'0 0.0
2017-Dec-13 08:00N 46°45' W 092°07'0 0.0
2017-Dec-13 07:30N 46°45' W 092°07'0 0.0
2017-Dec-13 07:00N 46°45' W 092°07'0 0.0
2017-Dec-13 06:30N 46°45' W 092°07'0 0.0
2017-Dec-13 06:00N 46°45' W 092°07'0 0.0
2017-Dec-13 05:30N 46°45' W 092°07'0 0.4
2017-Dec-13 05:00N 46°45' W 092°07'1 1.9
2017-Dec-13 04:30N 46°45' W 092°06'2 4.6
2017-Dec-13 04:00N 46°47' W 092°04'2 3.4
2017-Dec-13 03:30N 46°48' W 092°02'1 2.6
2017-Dec-13 03:00N 46°49' W 092°00'1 2.9
2017-Dec-13 02:30N 46°49' W 091°58'5 9.8
2017-Dec-13 02:00N 46°52' W 091°52'612.7
2017-Dec-13 01:30N 46°55' W 091°44'14212.3
2017-Dec-12 14:00N 48°12' W 088°48'10410.4 310 / 241019.2 -14.9
2017-Dec-12 04:00N 48°18' W 086°12'185 9.3 010 / 261014.8 -14.9
2017-Dec-11 08:10N 45°44' W 083°43'212.7
2017-Dec-11 08:00N 45°42' W 083°41'612.5
2017-Dec-11 07:30N 45°37' W 083°36'612.2
2017-Dec-11 07:00N 45°32' W 083°31'612.0
2017-Dec-11 06:30N 45°27' W 083°26'5612.3
2017-Dec-11 02:00N 44°36' W 082°54'169 3.4 320 / 251015.2 -4.4
2017-Dec-09 01:00N 41°48' W 083°12'0 0.0 210 / 181015.2 -1.1
2017-Dec-08 14:00N 41°48' W 083°12'0 0.0 230 / 221017.2 -5.5
2017-Dec-08 03:00N 41°48' W 083°12'186 5.5 240 / 23507.1 -4.4
2017-Dec-06 17:00N 44°54' W 083°06'74 6.7 240 / 291006.110.8 -5.3-12.9 3.3
2017-Dec-06 06:00N 46°00' W 083°54'   260 / 241004.4 2.2 -1.2-13.0 4.4
Track history (hours):
 
Tides and Currents Weather Stations Pressure Air Temp Water Temp Dewpoint Dewpoint Depression Visibility Wind Speed Wind Dir Waves Ship Positions

Walter J Mccarthy Jr

Owner: ARMSTRONG STEAMSHIP CO, WILLIAMSVILLE, NY. More information available from US FCC via Universal Licensing System and Coast Guard Vessel Documentation Center.

Last reported at 2017-Dec-16 01:00 UTC. Time now 2017-Dec-17 02:33 UTC.
Position N 43°54' W 082°30'.

Length 304 m; draft 8.5 m.

Type: Cargo ship. MMSI: 366906610.

Wind from 250 at 29 knots

Barometer 1010.4 mb
Air temperature -3.8 ° C

Date/timePositionNaut miles runAvg speedWind from/ knotsBaromVisibWave heightAir tempDewpointWater temp
2017-Dec-16 01:00N 43°54' W 082°30'104 9.4 250 / 291010.4 -3.8
2017-Dec-15 14:00N 45°30' W 083°26'611.6
2017-Dec-15 13:30N 45°34' W 083°31'611.6
2017-Dec-15 13:00N 45°39' W 083°36'10777.1
2017-Dec-15 13:00N 45°30' W 083°30'1531.6 190 / 171008.1 -4.4
2017-Dec-15 12:30N 45°44' W 083°40'134 7.6
2017-Dec-14 19:00N 47°12' W 086°06'48 9.6 290 / 131014.0 5.4 -1.1
2017-Dec-14 14:00N 47°30' W 087°12'8912.8 300 / 151014.2 -6.1
2017-Dec-14 07:00N 47°36' W 089°24'6310.6 010 / 151015.010.8 -9.9
2017-Dec-14 01:00N 47°18' W 090°54'41 9.9 360 / 171012.5 -7.7
2017-Dec-13 20:49N 46°56' W 091°45'3 9.0
2017-Dec-13 20:30N 46°54' W 091°48'4 8.9
2017-Dec-13 20:00N 46°52' W 091°54'4 8.8
2017-Dec-13 19:30N 46°49' W 091°59'4 8.5
2017-Dec-13 19:00N 46°47' W 092°05'2 3.7
2017-Dec-13 18:30N 46°45' W 092°06'1 2.5
2017-Dec-13 18:00N 46°45' W 092°07'0 0.0
2017-Dec-13 17:30N 46°45' W 092°07'0 0.0
2017-Dec-13 17:00N 46°45' W 092°07'0 0.0
2017-Dec-13 16:30N 46°45' W 092°07'0 0.0
2017-Dec-13 16:00N 46°45' W 092°07'0 0.0
2017-Dec-13 15:30N 46°45' W 092°07'0 0.0
2017-Dec-13 15:00N 46°45' W 092°07'0 0.0
2017-Dec-13 14:30N 46°45' W 092°07'0 0.0
2017-Dec-13 14:00N 46°45' W 092°07'0 0.0
2017-Dec-13 13:30N 46°45' W 092°07'0 0.0
2017-Dec-13 13:00N 46°45' W 092°07'0 0.0
2017-Dec-13 12:30N 46°45' W 092°07'0 0.0
2017-Dec-13 12:00N 46°45' W 092°07'0 0.0
2017-Dec-13 11:29N 46°45' W 092°07'0 0.0
2017-Dec-13 11:00N 46°45' W 092°07'0 0.0
2017-Dec-13 10:30N 46°45' W 092°07'0 0.0
2017-Dec-13 10:00N 46°45' W 092°07'0 0.0
2017-Dec-13 09:30N 46°45' W 092°07'0 0.0
2017-Dec-13 09:00N 46°45' W 092°07'0 0.0
2017-Dec-13 08:30N 46°45' W 092°07'0 0.0
2017-Dec-13 08:00N 46°45' W 092°07'0 0.0
2017-Dec-13 07:30N 46°45' W 092°07'0 0.0
2017-Dec-13 07:00N 46°45' W 092°07'0 0.0
2017-Dec-13 06:30N 46°45' W 092°07'0 0.0
2017-Dec-13 06:00N 46°45' W 092°07'0 0.0
2017-Dec-13 05:30N 46°45' W 092°07'0 0.4
2017-Dec-13 05:00N 46°45' W 092°07'1 1.9
2017-Dec-13 04:30N 46°45' W 092°06'2 4.6
2017-Dec-13 04:00N 46°47' W 092°04'2 3.4
2017-Dec-13 03:30N 46°48' W 092°02'1 2.6
2017-Dec-13 03:00N 46°49' W 092°00'1 2.9
2017-Dec-13 02:30N 46°49' W 091°58'5 9.8
2017-Dec-13 02:00N 46°52' W 091°52'612.7
2017-Dec-13 01:30N 46°55' W 091°44'14212.3
2017-Dec-12 14:00N 48°12' W 088°48'10410.4 310 / 241019.2 -14.9
2017-Dec-12 04:00N 48°18' W 086°12'185 9.3 010 / 261014.8 -14.9
2017-Dec-11 08:10N 45°44' W 083°43'212.7
2017-Dec-11 08:00N 45°42' W 083°41'612.5
2017-Dec-11 07:30N 45°37' W 083°36'612.2
2017-Dec-11 07:00N 45°32' W 083°31'612.0
2017-Dec-11 06:30N 45°27' W 083°26'5612.3
2017-Dec-11 02:00N 44°36' W 082°54'169 3.4 320 / 251015.2 -4.4
2017-Dec-09 01:00N 41°48' W 083°12'0 0.0 210 / 181015.2 -1.1
2017-Dec-08 14:00N 41°48' W 083°12'0 0.0 230 / 221017.2 -5.5
2017-Dec-08 03:00N 41°48' W 083°12'186 5.5 240 / 23507.1 -4.4
2017-Dec-06 17:00N 44°54' W 083°06'74 6.7 240 / 291006.110.8 -5.3-12.9 3.3
2017-Dec-06 06:00N 46°00' W 083°54'   260 / 241004.4 2.2 -1.2-13.0 4.4

Dump ship's entire track history